createdAt,value
2023-02-06T00:02:19.353Z,104066.47
2023-02-06T00:04:48.786Z,104071.63
2023-02-06T00:07:28.539Z,104081.94
2023-02-06T00:09:58.177Z,104078.44
2023-02-06T00:12:30.368Z,104072.41
2023-02-06T00:14:58.872Z,104086.16
2023-02-06T00:17:27.673Z,104069.66
2023-02-06T00:20:09.509Z,104069.56
2023-02-06T00:22:42.802Z,104067.63
2023-02-06T00:25:10.188Z,104054.66
2023-02-06T00:27:43.498Z,104066.72
2023-02-06T00:30:13.983Z,104058.84
2023-02-06T00:32:45.422Z,104069.00
2023-02-06T00:35:18.572Z,104069.72
2023-02-06T00:37:49.055Z,104056.50
2023-02-06T00:40:22.444Z,104058.84
2023-02-06T00:42:50.230Z,104048.44
2023-02-06T00:45:18.654Z,104050.25
2023-02-06T00:47:47.843Z,104050.25
2023-02-06T00:50:18.227Z,104047.69
2023-02-06T00:52:46.385Z,104052.91
2023-02-06T00:55:16.115Z,104052.13
2023-02-06T00:57:43.647Z,104050.25
2023-02-06T01:00:14.030Z,104057.25
2023-02-06T01:02:42.767Z,104055.28
2023-02-06T01:05:12.654Z,104057.69
2023-02-06T01:07:43.408Z,104060.88
2023-02-06T01:10:14.285Z,104059.03
2023-02-06T01:12:45.224Z,104054.56
2023-02-06T01:15:15.774Z,104073.44
2023-02-06T01:17:43.594Z,104079.34
2023-02-06T01:20:14.960Z,104072.34
2023-02-06T01:22:43.588Z,104084.50
2023-02-06T01:25:14.278Z,104083.53
2023-02-06T01:27:44.150Z,104086.06
2023-02-06T01:30:56.042Z,104072.97
2023-02-06T01:33:58.771Z,104077.16
2023-02-06T01:36:45.719Z,104067.59
2023-02-06T01:39:28.751Z,104073.66
2023-02-06T01:42:18.963Z,104088.50
2023-02-06T01:45:26.603Z,104085.09
2023-02-06T01:48:13.092Z,104084.91
2023-02-06T01:50:47.410Z,104079.47
2023-02-06T01:53:22.804Z,104075.91
2023-02-06T01:55:57.310Z,104083.53
2023-02-06T01:58:57.989Z,104083.44
2023-02-06T02:01:26.371Z,104085.09
2023-02-06T02:04:17.526Z,104077.28
2023-02-06T02:07:08.720Z,104077.34
2023-02-06T02:09:39.707Z,104086.00
2023-02-06T02:12:08.729Z,104077.44
2023-02-06T02:14:46.470Z,104080.38
2023-02-06T02:17:48.262Z,104089.22
2023-02-06T02:21:05.829Z,104085.19
2023-02-06T02:23:58.858Z,104074.22
2023-02-06T02:27:47.303Z,104077.84
2023-02-06T02:30:21.276Z,104066.84
2023-02-06T02:33:32.273Z,104057.47
2023-02-06T02:36:29.798Z,104067.94
2023-02-06T02:39:18.392Z,104061.09
2023-02-06T02:42:12.651Z,104055.00
2023-02-06T02:45:22.220Z,104058.56
2023-02-06T02:48:05.305Z,104055.13
2023-02-06T02:50:42.871Z,104050.06
2023-02-06T02:53:18.511Z,104063.94
2023-02-06T02:55:53.699Z,104056.25
2023-02-06T02:58:45.814Z,104052.91
2023-02-06T03:01:26.724Z,104045.84
2023-02-06T03:04:06.024Z,104048.38
2023-02-06T03:07:34.612Z,104051.75
2023-02-06T03:11:01.325Z,104050.91
2023-02-06T03:14:02.520Z,104036.19
2023-02-06T03:16:45.080Z,104029.41
2023-02-06T03:22:21.085Z,104040.69
2023-02-06T03:24:54.917Z,104047.56
2023-02-06T03:27:31.581Z,104045.84
2023-02-06T03:30:09.353Z,104047.56
2023-02-06T03:33:03.998Z,104044.31
2023-02-06T03:35:44.277Z,104047.84
2023-02-06T03:38:13.583Z,104043.53
2023-02-06T03:40:47.460Z,104040.06
2023-02-06T03:43:24.685Z,104040.13
2023-02-06T03:46:05.565Z,104040.28
2023-02-06T03:48:43.135Z,104032.53
2023-02-06T03:51:22.129Z,104035.97
2023-02-06T03:53:54.938Z,104035.94
2023-02-06T03:57:06.051Z,104040.44
2023-02-06T03:59:33.905Z,104033.50
2023-02-06T04:02:07.166Z,104036.13
2023-02-06T04:04:41.884Z,104032.63
2023-02-06T04:07:25.234Z,104032.56
2023-02-06T04:09:54.838Z,104029.88
2023-02-06T04:12:29.932Z,104040.22
2023-02-06T04:15:00.277Z,104049.59
2023-02-06T04:17:43.271Z,104047.72
2023-02-06T04:20:16.221Z,104038.91
2023-02-06T04:22:45.585Z,104041.38
2023-02-06T04:25:13.496Z,104040.47
2023-02-06T04:27:42.077Z,104035.19
2023-02-06T04:30:10.990Z,104042.03
2023-02-06T04:32:41.038Z,104038.53
2023-02-06T04:35:11.310Z,104038.56
2023-02-06T04:37:39.154Z,104024.69
2023-02-06T04:40:07.667Z,104010.03
2023-02-06T04:42:44.784Z,104009.13
2023-02-06T04:45:16.607Z,104014.25
2023-02-06T04:47:45.652Z,104018.59
2023-02-06T04:50:22.597Z,104015.91
2023-02-06T04:52:56.227Z,104020.97
2023-02-06T04:55:26.106Z,104020.91
2023-02-06T04:58:01.557Z,104031.09
2023-02-06T05:00:29.142Z,104033.56
2023-02-06T05:03:12.232Z,104030.66
2023-02-06T05:05:40.759Z,104029.50
2023-02-06T05:08:10.024Z,104030.38
2023-02-06T05:10:42.389Z,104029.56
2023-02-06T05:13:19.708Z,104021.00
2023-02-06T05:15:48.715Z,104023.53
2023-02-06T05:18:21.556Z,104032.25
2023-02-06T05:20:52.065Z,104034.91
2023-02-06T05:23:23.149Z,104038.34
2023-02-06T05:25:51.028Z,104045.41
2023-02-06T05:28:21.039Z,104034.16
2023-02-06T05:30:50.189Z,104029.91
2023-02-06T05:33:33.944Z,104037.59
2023-02-06T05:36:10.298Z,104039.09
2023-02-06T05:38:40.503Z,104050.00
2023-02-06T05:41:09.610Z,104061.09
2023-02-06T05:43:40.335Z,104043.81
2023-02-06T05:46:11.973Z,104055.94
2023-02-06T05:48:41.836Z,104056.84
2023-02-06T05:51:10.059Z,104063.75
2023-02-06T05:53:37.837Z,104057.66
2023-02-06T05:56:08.115Z,104050.72
2023-02-06T05:58:36.700Z,104048.97
2023-02-06T06:01:05.611Z,104057.53
2023-02-06T06:03:39.100Z,104051.44
2023-02-06T06:06:08.474Z,104047.84
2023-02-06T06:08:41.573Z,104053.78
2023-02-06T06:11:42.746Z,104046.00
2023-02-06T06:14:16.926Z,104052.78
2023-02-06T06:16:46.434Z,104051.91
2023-02-06T06:19:16.145Z,104055.31
2023-02-06T06:21:45.314Z,104055.31
2023-02-06T06:24:15.077Z,104057.03
2023-02-06T06:26:45.860Z,104057.94
2023-02-06T06:29:15.832Z,104061.38
2023-02-06T06:31:50.752Z,104067.47
2023-02-06T06:34:20.923Z,104071.81
2023-02-06T06:36:54.084Z,104069.25
2023-02-06T06:39:21.967Z,104064.06
2023-02-06T06:41:53.557Z,104061.50
2023-02-06T06:44:35.359Z,104061.50
2023-02-06T06:47:07.085Z,104059.59
2023-02-06T06:49:38.894Z,104046.56
2023-02-06T06:52:24.043Z,104045.66
2023-02-06T06:55:02.216Z,104050.03
2023-02-06T06:57:40.343Z,104050.94
2023-02-06T07:00:10.111Z,104038.00
2023-02-06T07:03:12.428Z,104039.06
2023-02-06T07:05:48.788Z,104043.41
2023-02-06T07:08:26.413Z,104036.59
2023-02-06T07:10:54.571Z,104032.34
2023-02-06T07:13:26.953Z,104027.19
2023-02-06T07:15:56.892Z,104028.13
2023-02-06T07:18:25.743Z,104025.63
2023-02-06T07:21:03.630Z,104032.56
2023-02-06T07:23:38.141Z,104031.72
2023-02-06T07:26:08.435Z,104020.66
2023-02-06T07:28:39.266Z,104022.47
2023-02-06T07:31:14.649Z,104026.88
2023-02-06T07:33:46.675Z,104021.81
2023-02-06T07:36:21.391Z,104019.34
2023-02-06T07:38:55.694Z,104013.34
2023-02-06T07:41:33.402Z,104015.16
2023-02-06T07:44:09.917Z,104016.97
2023-02-06T07:46:38.264Z,104021.34
2023-02-06T07:49:07.243Z,104004.16
2023-02-06T07:51:48.407Z,104001.75
2023-02-06T07:54:21.386Z,103996.75
2023-02-06T07:56:51.309Z,103993.41
2023-02-06T07:59:38.125Z,103998.75
2023-02-06T08:02:15.113Z,103983.34
2023-02-06T08:04:44.282Z,103985.34
2023-02-06T08:07:15.009Z,103971.72
2023-02-06T08:09:45.620Z,103974.56
2023-02-06T08:12:17.332Z,103976.41
2023-02-06T08:14:50.441Z,103973.91
2023-02-06T08:17:46.175Z,103962.91
2023-02-06T08:20:27.114Z,103965.63
2023-02-06T08:23:10.176Z,103978.75
2023-02-06T08:25:39.164Z,103977.25
2023-02-06T08:28:12.499Z,103968.72
2023-02-06T08:34:16.211Z,103960.38
2023-02-06T08:36:57.262Z,103959.59
2023-02-06T08:39:26.528Z,103958.13
2023-02-06T08:41:59.670Z,103946.19
2023-02-06T08:44:35.795Z,103942.94
2023-02-06T08:47:10.394Z,103938.81
2023-02-06T08:49:42.024Z,103945.84
2023-02-06T08:52:22.404Z,103946.81
2023-02-06T09:00:35.645Z,103930.78
2023-02-06T09:03:05.734Z,103926.50
2023-02-06T09:05:36.648Z,103933.50
2023-02-06T09:08:07.954Z,103918.84
2023-02-06T09:13:18.041Z,103938.06
2023-02-06T09:15:56.324Z,103955.47
2023-02-06T09:18:37.375Z,103958.28
2023-02-06T09:21:16.485Z,103947.19
2023-02-06T09:24:06.195Z,103951.63
2023-02-06T09:26:57.325Z,103953.59
2023-02-06T09:32:32.907Z,103959.34
2023-02-06T09:35:09.338Z,103961.38
2023-02-06T09:37:45.518Z,103974.63
2023-02-06T09:40:28.684Z,103974.09
2023-02-06T09:43:07.463Z,103980.41
2023-02-06T09:45:38.033Z,103979.81
2023-02-06T09:48:22.736Z,103986.03
2023-02-06T09:51:30.069Z,103978.59
2023-02-06T09:54:27.937Z,103971.09
2023-02-06T09:57:41.488Z,103987.06
2023-02-06T10:01:01.590Z,103981.44
2023-02-06T10:04:26.092Z,103980.06
2023-02-06T10:08:16.958Z,103979.50
2023-02-06T10:11:18.958Z,103988.34
2023-02-06T10:14:05.476Z,103995.56
2023-02-06T10:16:54.807Z,103996.78
2023-02-06T10:19:44.024Z,103987.53
2023-02-06T10:22:45.823Z,103987.81
2023-02-06T10:25:44.150Z,103999.41
2023-02-06T10:31:59.481Z,103997.16
2023-02-06T10:35:38.116Z,103998.09
2023-02-06T10:39:12.077Z,103997.22
2023-02-06T10:42:26.787Z,103991.19
2023-02-06T10:45:52.065Z,103995.84
2023-02-06T10:49:08.707Z,103988.72
2023-02-06T10:52:03.155Z,103982.19
2023-02-06T10:56:14.435Z,103980.91
2023-02-06T10:59:15.035Z,103969.63
2023-02-06T11:02:33.179Z,103968.63
2023-02-06T11:05:39.482Z,103971.28
2023-02-06T11:08:35.623Z,103975.69
2023-02-06T11:11:37.126Z,103966.94
2023-02-06T11:14:40.522Z,103967.84
2023-02-06T11:17:20.498Z,103977.31
2023-02-06T11:20:26.116Z,103975.50
2023-02-06T11:22:58.304Z,103961.44
2023-02-06T11:25:35.016Z,103965.91
2023-02-06T11:28:20.810Z,103966.84
2023-02-06T11:31:09.733Z,103966.03
2023-02-06T11:33:58.061Z,103957.28
2023-02-06T11:36:39.397Z,103951.16
2023-02-06T11:39:39.394Z,103951.97
2023-02-06T11:42:26.548Z,103958.06
2023-02-06T11:44:53.904Z,103958.03
2023-02-06T11:50:56.510Z,103959.66
2023-02-06T11:56:32.331Z,103935.53
2023-02-06T12:09:31.560Z,103925.22
2023-02-06T12:12:45.855Z,103920.81
2023-02-06T12:15:46.475Z,103912.28
2023-02-06T12:18:31.088Z,103922.91
2023-02-06T12:22:03.037Z,103918.63
2023-02-06T12:24:46.816Z,103911.63
2023-02-06T12:27:48.452Z,103903.72
2023-02-06T12:38:56.069Z,103896.03
2023-02-06T12:42:18.468Z,103891.66
2023-02-06T12:45:19.010Z,103888.19
2023-02-06T12:49:10.794Z,103889.91
2023-02-06T12:52:42.271Z,103872.47
2023-02-06T12:55:35.708Z,103855.91
2023-02-06T12:58:58.694Z,103862.00
2023-02-06T13:02:45.984Z,103869.84
2023-02-06T13:05:38.707Z,103871.56
2023-02-06T13:08:32.453Z,103861.94
2023-02-06T13:11:38.906Z,103862.75
2023-02-06T13:14:32.613Z,103860.94
2023-02-06T13:17:44.375Z,103845.25
2023-02-06T13:20:33.432Z,103840.91
2023-02-06T13:23:32.162Z,103828.81
2023-02-06T13:26:05.738Z,103831.44
2023-02-06T13:29:00.071Z,103820.13
2023-02-06T13:31:44.184Z,103831.47
2023-02-06T13:34:42.680Z,103822.69
2023-02-06T13:37:48.527Z,103829.38
2023-02-06T13:40:33.686Z,103829.47
2023-02-06T13:43:21.721Z,103826.97
2023-02-06T13:46:10.316Z,103827.06
2023-02-06T13:49:20.802Z,103830.59
2023-02-06T13:51:49.155Z,103832.34
2023-02-06T13:55:17.653Z,103827.09
2023-02-06T13:59:07.667Z,103833.09
2023-02-06T14:01:42.005Z,103817.38
2023-02-06T14:04:35.600Z,103815.63
2023-02-06T14:07:58.649Z,103808.72
2023-02-06T14:11:18.117Z,103816.56
2023-02-06T14:14:05.430Z,103811.25
2023-02-06T14:17:32.650Z,103811.22
2023-02-06T14:24:09.253Z,103818.09
2023-02-06T14:27:25.269Z,103814.56
2023-02-06T14:30:57.629Z,103818.84
2023-02-06T14:34:27.728Z,103822.28
2023-02-06T14:38:16.889Z,103822.28
2023-02-06T14:43:58.509Z,103820.56
2023-02-06T14:46:36.614Z,103828.44
2023-02-06T14:49:09.069Z,103840.63
2023-02-06T14:51:46.001Z,103834.53
2023-02-06T14:54:42.947Z,103837.97
2023-02-06T15:00:23.967Z,103826.63
2023-02-06T15:03:35.451Z,103828.31
2023-02-06T15:06:41.415Z,103830.91
2023-02-06T15:09:38.390Z,103825.66
2023-02-06T15:12:27.702Z,103822.19
2023-02-06T15:15:26.806Z,103812.63
2023-02-06T15:18:18.755Z,103813.50
2023-02-06T15:21:00.892Z,103813.53
2023-02-06T15:23:58.166Z,103813.50
2023-02-06T15:27:11.352Z,103816.09
2023-02-06T15:29:39.664Z,103812.63
2023-02-06T15:32:35.671Z,103811.69
2023-02-06T15:35:33.254Z,103818.63
2023-02-06T15:38:32.943Z,103820.34
2023-02-06T15:41:09.693Z,103823.78
2023-02-06T15:43:43.126Z,103819.41
2023-02-06T15:46:14.113Z,103825.50
2023-02-06T15:49:01.857Z,103817.66
2023-02-06T15:51:58.034Z,103812.44
2023-02-06T15:54:37.133Z,103811.50
2023-02-06T15:57:17.159Z,103810.63
2023-02-06T15:59:47.599Z,103807.16
2023-02-06T16:02:38.080Z,103809.72
2023-02-06T16:05:31.302Z,103807.09
2023-02-06T16:08:05.756Z,103807.91
2023-02-06T16:10:48.537Z,103802.59
2023-02-06T16:13:28.238Z,103806.88
2023-02-06T16:16:25.417Z,103808.44
2023-02-06T16:18:59.552Z,103806.63
2023-02-06T16:21:34.717Z,103823.91
2023-02-06T16:24:18.209Z,103821.16
2023-02-06T16:26:53.177Z,103814.94
2023-02-06T16:29:31.551Z,103814.84
2023-02-06T16:35:02.373Z,103832.88
2023-02-06T16:40:26.443Z,103811.84
2023-02-06T16:42:55.588Z,103811.78
2023-02-06T16:45:29.206Z,103803.91
2023-02-06T16:47:57.010Z,103807.28
2023-02-06T16:50:26.503Z,103811.50
2023-02-06T16:53:13.671Z,103807.94
2023-02-06T16:55:49.736Z,103806.13
2023-02-06T16:58:25.903Z,103804.34
2023-02-06T17:00:57.297Z,103811.19
2023-02-06T17:03:27.410Z,103803.31
2023-02-06T17:06:02.592Z,103815.38
2023-02-06T17:08:40.795Z,103808.31
2023-02-06T17:11:11.561Z,103820.38
2023-02-06T17:13:42.485Z,103833.28
2023-02-06T17:16:31.302Z,103835.75
2023-02-06T17:19:07.949Z,103842.59
2023-02-06T17:24:29.611Z,103833.69
2023-02-06T17:27:09.097Z,103844.00
2023-02-06T17:29:41.153Z,103838.66
2023-02-06T17:32:13.574Z,103839.41
2023-02-06T17:34:46.959Z,103840.13
2023-02-06T17:37:21.587Z,103847.84
2023-02-06T17:39:56.500Z,103845.09
2023-02-06T17:42:26.404Z,103845.00
2023-02-06T17:44:57.765Z,103842.25
2023-02-06T17:47:37.080Z,103845.66
2023-02-06T17:50:05.124Z,103840.38
2023-02-06T17:52:33.786Z,103833.31
2023-02-06T17:55:01.672Z,103826.31
2023-02-06T17:57:31.695Z,103827.13
2023-02-06T18:00:05.107Z,103815.78
2023-02-06T18:02:34.708Z,103826.09
2023-02-06T18:05:04.215Z,103824.31
2023-02-06T18:07:32.459Z,103817.25
2023-02-06T18:10:04.126Z,103816.44
2023-02-06T18:12:34.176Z,103815.50
2023-02-06T18:15:01.913Z,103821.53
2023-02-06T18:17:32.236Z,103817.16
2023-02-06T18:20:00.406Z,103818.84
2023-02-06T18:22:28.325Z,103817.94
2023-02-06T18:24:56.915Z,103820.47
2023-02-06T18:27:25.360Z,103814.25
2023-02-06T18:29:57.645Z,103813.25
2023-02-06T18:33:12.933Z,103805.31
2023-02-06T18:35:46.805Z,103810.41
2023-02-06T18:39:09.834Z,103811.16
2023-02-06T18:41:57.737Z,103799.00
2023-02-06T18:44:26.982Z,103799.81
2023-02-06T18:47:25.896Z,103799.66
2023-02-06T19:03:32.493Z,103792.16
2023-02-06T19:06:06.926Z,103787.75
2023-02-06T19:08:41.242Z,103785.91
2023-02-06T19:11:13.262Z,103784.06
2023-02-06T19:13:43.243Z,103778.75
2023-02-06T19:16:23.608Z,103770.09
2023-02-06T19:18:54.804Z,103766.66
2023-02-06T19:24:20.733Z,103771.66
2023-02-06T19:26:49.826Z,103773.28
2023-02-06T19:29:34.619Z,103780.97
2023-02-06T19:32:18.339Z,103774.72
2023-02-06T19:34:46.628Z,103775.44
2023-02-06T19:37:14.934Z,103775.34
2023-02-06T19:39:44.773Z,103778.88
2023-02-06T19:42:16.354Z,103775.38
2023-02-06T19:44:53.156Z,103775.28
2023-02-06T19:47:25.570Z,103771.75
2023-02-06T19:49:57.069Z,103786.28
2023-02-06T19:52:29.955Z,103777.47
2023-02-06T19:54:58.941Z,103779.09
2023-02-06T19:57:28.376Z,103772.97
2023-02-06T19:59:57.756Z,103777.19
2023-02-06T20:02:28.305Z,103776.22
2023-02-06T20:04:57.397Z,103781.25
2023-02-06T20:07:24.794Z,103789.66
2023-02-06T20:09:52.747Z,103793.75
2023-02-06T20:12:21.609Z,103793.69
2023-02-06T20:14:50.728Z,103795.38
2023-02-06T20:17:19.566Z,103789.16
2023-02-06T20:19:51.053Z,103796.06
2023-02-06T20:22:21.221Z,103801.06
2023-02-06T20:24:52.685Z,103796.50
2023-02-06T20:27:23.102Z,103799.69
2023-02-06T20:29:56.158Z,103801.31
2023-02-06T20:32:28.604Z,103789.09
2023-02-06T20:34:57.793Z,103793.34
2023-02-06T20:37:33.114Z,103790.63
2023-02-06T20:40:01.233Z,103786.94
2023-02-06T20:42:32.216Z,103787.75
2023-02-06T20:45:01.002Z,103789.38
2023-02-06T20:47:32.764Z,103788.44
2023-02-06T20:50:02.200Z,103784.91
2023-02-06T20:52:34.078Z,103778.75
2023-02-06T20:55:08.037Z,103795.06
2023-02-06T20:57:38.371Z,103802.81
2023-02-06T21:00:08.852Z,103791.59
2023-02-06T21:02:49.045Z,103787.16
2023-02-06T21:05:18.801Z,103794.97
2023-02-06T21:07:48.227Z,103782.78
2023-02-06T21:10:18.059Z,103778.34
2023-02-06T21:12:49.710Z,103789.50
2023-02-06T21:15:23.589Z,103786.00
2023-02-06T21:17:58.618Z,103794.59
2023-02-06T21:20:30.431Z,103792.91
2023-02-06T21:22:59.678Z,103786.72
2023-02-06T21:25:27.950Z,103784.16
2023-02-06T21:27:57.037Z,103773.72
2023-02-06T21:30:24.929Z,103771.03
2023-02-06T21:32:56.767Z,103771.00
2023-02-06T21:35:24.842Z,103775.38
2023-02-06T21:37:54.236Z,103776.34
2023-02-06T21:40:26.576Z,103773.03
2023-02-06T21:42:55.491Z,103766.34
2023-02-06T21:48:17.190Z,103758.13
2023-02-06T21:51:07.972Z,103757.44
2023-02-06T21:53:46.987Z,103770.47
2023-02-06T21:56:24.933Z,103756.53
2023-02-06T21:58:54.989Z,103761.63
2023-02-06T22:01:38.542Z,103754.59
2023-02-06T22:04:20.690Z,103754.34
2023-02-06T22:06:54.233Z,103746.47
2023-02-06T22:09:28.076Z,103746.28
2023-02-06T22:15:30.664Z,103752.91
2023-02-06T22:18:14.358Z,103743.28
2023-02-06T22:20:47.109Z,103744.00
2023-02-06T22:26:07.603Z,103741.97
2023-02-06T22:28:44.100Z,103739.19
2023-02-06T22:31:44.070Z,103740.00
2023-02-06T22:34:28.332Z,103753.69
2023-02-06T22:37:01.570Z,103752.72
2023-02-06T22:39:30.996Z,103753.44
2023-02-06T22:42:03.678Z,103752.44
2023-02-06T22:44:34.030Z,103746.25
2023-02-06T22:47:02.556Z,103751.38
2023-02-06T22:49:31.320Z,103752.91
2023-02-06T22:52:13.709Z,103753.69
2023-02-06T22:54:43.254Z,103756.19
2023-02-06T22:57:14.018Z,103761.25
2023-02-06T23:02:33.237Z,103755.75
2023-02-06T23:05:05.647Z,103755.81
2023-02-06T23:07:39.607Z,103761.78
2023-02-06T23:10:11.671Z,103749.69
2023-02-06T23:12:44.570Z,103746.19
2023-02-06T23:15:14.938Z,103753.91
2023-02-06T23:17:52.961Z,103752.97
2023-02-06T23:20:32.241Z,103756.25
2023-02-06T23:23:06.792Z,103762.19
2023-02-06T23:25:52.880Z,103764.66
2023-02-06T23:28:25.412Z,103768.03
2023-02-06T23:33:38.913Z,103776.50
2023-02-06T23:36:20.442Z,103771.28
2023-02-06T23:38:49.340Z,103768.59
2023-02-06T23:41:28.905Z,103769.41
2023-02-06T23:44:04.742Z,103758.09
2023-02-06T23:46:41.649Z,103768.47
2023-02-06T23:49:24.883Z,103764.06
2023-02-06T23:51:54.012Z,103756.28
2023-02-06T23:54:24.458Z,103757.06
2023-02-06T23:56:57.329Z,103750.16
2023-02-06T23:59:25.450Z,103757.72
